Time;durP1;ratioP1;P1;durP2;ratioP2;P2;SDS_P1;SDS_P2;PMS_P1;PMS_P2;Temp;Humidity;BMP_temperature;BMP_pressure;BME280_temperature;BME280_humidity;BME280_pressure;Samples;Min_cycle;Max_cycle;Signal;HPM_P1;HPM_P2
2021/08/07 00:01:57;;;;;;;6.47;3.08;;;;;;;;;;5012492;28;20029;-79
2021/08/07 00:04:23;;;;;;;7.97;3.40;;;;;;;;;;5012531;28;20053;-78
2021/08/07 00:06:49;;;;;;;5.00;2.92;;;;;;;;;;5012325;28;20531;-80
2021/08/07 00:09:16;;;;;;;6.13;3.33;;;;;;;;;;5013256;28;20036;-79
2021/08/07 00:11:42;;;;;;;7.03;3.10;;;;;;;;;;5013898;28;20022;-77
2021/08/07 00:14:08;;;;;;;5.72;3.10;;;;;;;;;;5013952;28;20022;-78
2021/08/07 00:16:34;;;;;;;3.97;2.70;;;;;;;;;;5012331;28;20112;-78
2021/08/07 00:19:00;;;;;;;6.05;3.33;;;;;;;;;;5012552;28;20050;-79
2021/08/07 00:21:26;;;;;;;6.13;3.10;;;;;;;;;;5014038;28;20030;-79
2021/08/07 00:23:52;;;;;;;8.23;2.95;;;;;;;;;;5012296;28;20478;-78
2021/08/07 00:26:18;;;;;;;5.85;3.25;;;;;;;;;;5012502;28;20044;-79
2021/08/07 00:28:45;;;;;;;7.97;3.13;;;;;;;;;;5012558;28;20022;-77
2021/08/07 00:31:11;;;;;;;6.63;3.35;;;;;;;;;;5012398;28;20018;-79
2021/08/07 00:33:37;;;;;;;5.35;3.63;;;;;;;;;;5012467;28;20014;-78
2021/08/07 00:36:03;;;;;;;4.88;3.00;;;;;;;;;;5013613;28;20475;-78
2021/08/07 00:38:29;;;;;;;6.35;3.35;;;;;;;;;;5013321;28;20037;-78
2021/08/07 00:40:56;;;;;;;7.85;3.65;;;;;;;;;;5012255;28;20406;-79
2021/08/07 00:43:22;;;;;;;6.72;3.67;;;487.20;2380.80;;;;;;5012287;28;20076;-78
2021/08/07 00:45:48;;;;;;;5.72;3.50;;;487.00;2380.80;;;;;;5011943;28;20041;-78
2021/08/07 00:48:14;;;;;;;6.97;3.35;;;486.70;2380.80;;;;;;5012485;28;20045;-78
2021/08/07 00:50:40;;;;;;;6.63;3.47;;;487.00;2380.80;;;;;;5013317;28;20026;-78
2021/08/07 00:53:07;;;;;;;5.90;3.45;;;487.00;2380.80;;;;;;5013624;28;20030;-79
2021/08/07 00:55:33;;;;;;;9.25;3.40;;;486.90;2380.80;;;;;;5012388;28;20080;-78
2021/08/07 00:57:59;;;;;;;8.10;3.30;;;487.00;2380.80;;;;;;5011622;28;20434;-78
2021/08/07 01:00:25;;;;;;;6.22;3.63;;;486.90;2380.80;;;;;;5012152;28;20060;-77
2021/08/07 01:03:17;;;;;;;5.63;2.70;;;486.90;2380.80;;;;;;5012214;28;20022;-78
2021/08/07 01:06:05;;;;;;;5.15;3.30;;;486.70;2380.80;;;;;;5000962;28;20126;-78
2021/08/07 01:08:42;;;;;;;5.90;3.75;;;487.00;2380.80;;;;;;5011724;28;20513;-78
2021/08/07 01:11:25;;;;;;;4.78;3.42;;;487.10;2380.80;;;;;;5012219;28;20022;-77
2021/08/07 01:13:57;;;;;;;7.90;4.00;;;486.90;2380.80;;;;;;5013380;28;20029;-76
2021/08/07 01:16:30;;;;;;;8.60;3.78;;;486.60;2380.80;;;;;;5013187;28;20037;-77
2021/08/07 01:18:58;;;;;;;5.75;3.58;;;461.70;2380.80;;;;;;5015044;28;20169;-77
2021/08/07 01:21:28;;;;;;;6.13;3.38;;;486.60;2380.80;;;;;;5015682;28;20026;-77
2021/08/07 01:24:20;;;;;;;11.02;4.07;;;486.70;2380.80;;;;;;5015538;28;20024;-78
2021/08/07 01:26:54;;;;;;;8.68;3.45;;;486.60;2380.80;;;;;;5015427;28;20063;-79
2021/08/07 01:29:20;;;;;;;7.47;3.67;;;486.70;2380.80;;;;;;5015760;28;20046;-79
2021/08/07 01:31:48;;;;;;;7.40;3.10;;;486.70;2380.80;;;;;;5015575;28;20021;-79
2021/08/07 01:34:16;;;;;;;5.65;3.60;;;486.70;2380.80;;;;;;5015299;28;20087;-80
2021/08/07 01:36:43;;;;;;;5.40;3.45;;;486.70;2380.80;;;;;;5017000;28;20025;-78
2021/08/07 01:39:09;;;;;;;7.07;3.35;;;486.60;2380.80;;;;;;5015628;28;20026;-79
2021/08/07 01:41:36;;;;;;;7.40;3.88;;;486.60;2380.80;;;;;;5014941;28;20029;-77
2021/08/07 01:44:02;;;;;;;7.22;4.00;;;486.50;2380.80;;;;;;5016707;28;20104;-80
2021/08/07 01:46:35;;;;;;;5.55;3.40;;;486.60;2380.80;;;;;;5014760;28;20113;-78
2021/08/07 01:49:07;;;;;;;7.68;3.92;;;486.50;2380.80;;;;;;5016303;28;20021;-81
2021/08/07 01:52:00;;;;;;;6.63;3.47;;;461.70;2380.80;;;;;;5015074;28;20045;-80
2021/08/07 01:54:32;;;;;;;5.95;3.83;;;461.50;2380.80;;;;;;5004978;28;20444;-78
2021/08/07 01:57:02;;;;;;;9.70;3.43;;;461.70;2380.80;;;;;;5019900;28;20387;-80
2021/08/07 01:59:28;;;;;;;5.63;3.75;;;461.70;2380.80;;;;;;5018798;28;20017;-78
2021/08/07 02:01:55;;;;;;;8.52;4.07;;;461.70;2380.80;;;;;;5018700;28;20028;-80
2021/08/07 02:04:22;;;;;;;6.93;3.60;;;461.70;2380.80;;;;;;5048970;28;20459;-76
2021/08/07 02:06:49;;;;;;;8.05;3.95;;;461.70;2380.80;;;;;;5033454;28;20029;-77
2021/08/07 02:09:18;;;;;;;9.48;3.30;;;461.70;2380.80;;;;;;5050058;28;20388;-76
2021/08/07 02:11:45;;;;;;;7.43;4.47;;;461.50;2380.80;;;;;;5029624;28;20027;-78
2021/08/07 02:14:11;;;;;;;7.68;3.95;;;461.40;2380.80;;;;;;5025275;28;20046;-77
2021/08/07 02:16:40;;;;;;;5.60;3.70;;;461.40;2380.80;;;;;;5018716;28;20036;-80
2021/08/07 02:19:07;;;;;;;7.15;3.88;;;461.40;2380.80;;;;;;5017850;28;20025;-80
2021/08/07 02:21:35;;;;;;;9.15;3.83;;;461.40;2380.80;;;;;;5018022;28;20459;-81
2021/08/07 02:24:01;;;;;;;5.70;3.50;;;461.70;2380.80;;;;;;5018195;28;20022;-81
2021/08/07 02:26:28;;;;;;;5.50;3.50;;;461.40;2380.80;;;;;;5017917;28;20060;-79
2021/08/07 02:28:55;;;;;;;7.90;3.90;;;461.40;2380.80;;;;;;5017103;28;20017;-78
2021/08/07 02:31:21;;;;;;;9.43;4.18;;;461.40;2380.80;;;;;;5017276;28;20021;-77
2021/08/07 02:33:48;;;;;;;9.88;4.32;;;461.30;2380.80;;;;;;5017120;28;20112;-76
2021/08/07 02:36:15;;;;;;;8.25;3.30;;;461.30;2380.80;;;;;;5016538;28;20025;-79
2021/08/07 02:38:41;;;;;;;4.57;3.03;;;461.50;2380.80;;;;;;5016804;28;20017;-78
2021/08/07 02:41:08;;;;;;;9.82;3.53;;;461.70;2380.80;;;;;;5017316;28;20025;-79
2021/08/07 02:43:34;;;;;;;6.72;4.07;;;486.40;2380.80;;;;;;5017108;28;20455;-78
2021/08/07 02:46:00;;;;;;;6.05;3.90;;;461.60;2380.80;;;;;;5034978;28;20037;-79
2021/08/07 02:48:28;;;;;;;9.45;3.50;;;461.50;2380.80;;;;;;5017131;28;20036;-78
2021/08/07 02:50:54;;;;;;;7.35;3.42;;;461.70;2380.80;;;;;;5016681;28;20076;-78
2021/08/07 02:53:22;;;;;;;6.43;3.55;;;461.70;2380.80;;;;;;5017219;28;20021;-78
2021/08/07 02:55:49;;;;;;;5.95;3.55;;;461.70;2380.80;;;;;;5016990;28;20037;-80
2021/08/07 02:58:15;;;;;;;6.63;3.65;;;461.50;2380.80;;;;;;5034510;28;20045;-80
2021/08/07 03:00:41;;;;;;;6.10;3.45;;;461.40;2380.80;;;;;;5034233;28;20144;-79
2021/08/07 03:03:08;;;;;;;7.35;3.75;;;461.40;2380.80;;;;;;5016508;28;20120;-77
2021/08/07 03:05:34;;;;;;;7.60;3.30;;;461.40;2380.80;;;;;;5033739;28;20034;-76
2021/08/07 03:08:00;;;;;;;6.32;3.25;;;461.50;2380.80;;;;;;5016853;28;20028;-79
2021/08/07 03:10:26;;;;;;;7.18;3.80;;;461.50;2380.80;;;;;;5017165;28;20382;-77
2021/08/07 03:12:53;;;;;;;8.40;3.97;;;461.50;2380.80;;;;;;5017816;28;20033;-79
2021/08/07 03:15:23;;;;;;;6.07;3.17;;;461.40;2380.80;;;;;;5017060;28;20025;-79
2021/08/07 03:17:49;;;;;;;4.95;3.50;;;461.40;2380.80;;;;;;5015891;28;20021;-77
2021/08/07 03:20:15;;;;;;;7.45;4.10;;;461.30;2380.80;;;;;;5016130;28;20513;-78
2021/08/07 03:22:41;;;;;;;9.00;4.40;;;461.20;2380.80;;;;;;5016386;28;20017;-80
2021/08/07 03:25:08;;;;;;;9.02;3.80;;;461.20;2380.80;;;;;;5033919;28;20025;-79
2021/08/07 03:27:34;;;;;;;12.73;5.20;;;461.10;2380.80;;;;;;5016294;28;20022;-78
2021/08/07 03:30:00;;;;;;;7.13;4.10;;;461.30;2380.80;;;;;;5015788;28;20022;-78
2021/08/07 03:32:26;;;;;;;8.35;3.65;;;461.30;2380.80;;;;;;5015914;28;20025;-77
2021/08/07 03:34:51;;;;;;;10.52;3.72;;;461.30;2380.80;;;;;;5016415;28;20021;-78
2021/08/07 03:37:17;;;;;;;9.95;3.75;;;461.40;2380.80;;;;;;5016323;28;20021;-76
2021/08/07 03:39:43;;;;;;;5.97;4.22;;;461.40;2380.80;;;;;;5015355;28;20021;-78
2021/08/07 03:42:09;;;;;;;6.35;3.60;;;461.20;2380.80;;;;;;5016127;28;20079;-78
2021/08/07 03:44:35;;;;;;;9.27;4.40;;;461.10;2380.80;;;;;;5016396;28;20025;-78
2021/08/07 03:47:01;;;;;;;7.05;4.57;;;461.00;2380.80;;;;;;5015898;28;20063;-76
2021/08/07 03:49:27;;;;;;;10.55;4.03;;;461.10;2380.80;;;;;;5016180;28;20421;-77
2021/08/07 03:51:52;;;;;;;7.38;4.30;;;461.10;2380.80;;;;;;5016250;28;20116;-77
2021/08/07 03:54:18;;;;;;;8.98;4.22;;;461.00;2380.80;;;;;;5015444;28;20028;-78
2021/08/07 03:56:44;;;;;;;5.22;3.47;;;460.80;2380.80;;;;;;5015710;28;20025;-78
2021/08/07 03:59:10;;;;;;;10.55;3.92;;;460.80;2380.80;;;;;;5033773;28;20079;-79
2021/08/07 04:01:36;;;;;;;8.10;3.95;;;460.80;2380.80;;;;;;5015659;28;20049;-80
2021/08/07 04:04:02;;;;;;;5.25;3.40;;;436.10;2355.20;;;;;;5016000;28;20056;-79
2021/08/07 04:06:27;;;;;;;7.43;3.50;;;436.10;2355.20;;;;;;5015555;28;20084;-82
2021/08/07 04:08:53;;;;;;;8.68;3.90;;;435.90;2355.20;;;;;;5015942;28;20071;-79
2021/08/07 04:11:19;;;;;;;7.85;4.07;;;435.70;2355.20;;;;;;5015788;28;20046;-81
2021/08/07 04:13:45;;;;;;;8.82;3.95;;;435.80;2355.20;;;;;;5015607;28;20017;-81
2021/08/07 04:16:11;;;;;;;5.90;3.95;;;435.70;2355.20;;;;;;5015926;28;20032;-80
2021/08/07 04:18:36;;;;;;;7.18;3.85;;;435.90;2355.20;;;;;;5015869;28;20022;-80
2021/08/07 04:21:02;;;;;;;4.93;3.65;;;435.90;2355.20;;;;;;5015697;28;20026;-80
2021/08/07 04:23:28;;;;;;;7.72;4.03;;;436.00;2355.20;;;;;;5015954;28;20473;-81
2021/08/07 04:25:54;;;;;;;6.15;3.88;;;435.90;2355.20;;;;;;5015776;28;20030;-80
2021/08/07 04:28:19;;;;;;;6.72;3.95;;;436.00;2355.20;;;;;;5033190;28;20443;-78
2021/08/07 04:30:45;;;;;;;6.85;3.60;;;436.00;2355.20;;;;;;5015761;28;20021;-79
2021/08/07 04:33:11;;;;;;;5.50;3.72;;;436.10;2355.20;;;;;;5015553;28;20033;-79
2021/08/07 04:35:37;;;;;;;10.65;3.85;;;460.80;2380.80;;;;;;5032814;28;20029;-80
2021/08/07 04:38:03;;;;;;;7.13;4.25;;;436.00;2355.20;;;;;;5015697;28;20025;-78
2021/08/07 04:40:30;;;;;;;7.85;3.72;;;460.80;2380.80;;;;;;5033362;28;20433;-78
2021/08/07 04:42:56;;;;;;;7.15;3.70;;;460.80;2380.80;;;;;;5033021;28;20025;-80
2021/08/07 04:45:22;;;;;;;7.80;3.92;;;460.80;2380.80;;;;;;5026852;28;20052;-78
2021/08/07 04:48:00;;;;;;;7.13;3.67;;;460.80;2380.80;;;;;;5029045;28;20021;-79
2021/08/07 04:50:29;;;;;;;6.68;3.92;;;460.80;2380.80;;;;;;5028003;28;20037;-81
2021/08/07 04:52:56;;;;;;;10.43;4.38;;;436.00;2355.20;;;;;;5031758;28;20112;-80
2021/08/07 04:55:22;;;;;;;6.45;3.63;;;460.80;2380.80;;;;;;5033445;28;20032;-78
2021/08/07 04:57:48;;;;;;;6.30;3.85;;;461.40;2380.80;;;;;;5032009;28;20072;-79
2021/08/07 05:00:15;;;;;;;8.32;4.28;;;460.80;2380.80;;;;;;5031260;28;20021;-78
2021/08/07 05:02:41;;;;;;;8.32;4.40;;;460.80;2380.80;;;;;;5030098;28;20026;-79
2021/08/07 05:05:08;;;;;;;9.38;4.38;;;460.80;2380.80;;;;;;5019215;28;20047;-79
2021/08/07 05:07:34;;;;;;;12.05;4.78;;;436.10;2355.20;;;;;;5021571;28;20451;-80
2021/08/07 05:10:01;;;;;;;12.05;5.40;;;460.90;2380.80;;;;;;5018978;28;20075;-80
2021/08/07 05:12:27;;;;;;;11.65;4.28;;;461.00;2380.80;;;;;;5019203;28;20032;-78
2021/08/07 05:14:57;;;;;;;9.55;4.10;;;461.10;2380.80;;;;;;5036757;28;20021;-80
2021/08/07 05:17:23;;;;;;;7.85;3.83;;;461.30;2380.80;;;;;;5018733;28;20021;-78
2021/08/07 05:19:50;;;;;;;8.18;4.07;;;461.50;2380.80;;;;;;5036742;28;20076;-79
2021/08/07 05:22:16;;;;;;;8.52;4.13;;;461.60;2380.80;;;;;;5018937;28;20463;-78
2021/08/07 05:24:42;;;;;;;8.68;3.88;;;461.50;2380.80;;;;;;5018661;28;20029;-80
2021/08/07 05:27:08;;;;;;;7.75;3.63;;;461.70;2380.80;;;;;;5036319;28;20083;-80
2021/08/07 05:29:34;;;;;;;6.45;3.60;;;461.70;2380.80;;;;;;5018675;28;20450;-78
2021/08/07 05:32:01;;;;;;;6.57;3.38;;;461.60;2380.80;;;;;;5036368;28;20071;-78
2021/08/07 05:34:26;;;;;;;9.23;3.58;;;461.70;2380.80;;;;;;5018706;28;20046;-78
2021/08/07 05:36:53;;;;;;;5.50;3.72;;;486.40;2380.80;;;;;;5036018;28;20399;-78
2021/08/07 05:39:18;;;;;;;5.80;3.53;;;486.40;2380.80;;;;;;5018212;28;20024;-79
2021/08/07 05:41:44;;;;;;;6.60;3.65;;;461.70;2380.80;;;;;;5018566;28;20025;-80
2021/08/07 05:44:10;;;;;;;5.95;3.70;;;486.40;2380.80;;;;;;5036275;28;20021;-79
2021/08/07 05:46:36;;;;;;;8.70;4.65;;;486.40;2380.80;;;;;;5018072;28;20450;-78
2021/08/07 05:49:02;;;;;;;8.85;4.13;;;486.50;2380.80;;;;;;5035858;28;20144;-78
2021/08/07 05:51:28;;;;;;;8.23;4.40;;;486.50;2380.80;;;;;;5017900;28;20367;-80
2021/08/07 05:53:54;;;;;;;12.10;7.35;;;486.50;2380.80;;;;;;5018468;28;20024;-79
2021/08/07 05:56:20;;;;;;;12.27;6.68;;;486.60;2380.80;;;;;;5018170;28;20120;-79
2021/08/07 05:58:46;;;;;;;12.10;6.68;;;486.70;2380.80;;;;;;5035767;28;20053;-79
2021/08/07 06:01:12;;;;;;;10.65;6.03;;;486.70;2380.80;;;;;;5035846;28;20362;-77
2021/08/07 06:03:38;;;;;;;10.90;6.30;;;486.80;2380.80;;;;;;5017369;28;20026;-77
2021/08/07 06:06:04;;;;;;;13.82;9.05;;;486.90;2380.80;;;;;;5035179;28;20459;-78
2021/08/07 06:08:29;;;;;;;14.75;9.73;;;487.10;2380.80;;;;;;5035776;28;20017;-76
2021/08/07 06:10:56;;;;;;;8.75;5.18;;;487.30;2380.80;;;;;;5035718;28;20621;-79
2021/08/07 06:13:22;;;;;;;5.70;4.32;;;512.40;2380.80;;;;;;5017364;28;20045;-77
2021/08/07 06:15:48;;;;;;;11.52;3.95;;;512.00;2380.80;;;;;;5017902;28;20021;-76
2021/08/07 06:18:14;;;;;;;7.25;3.55;;;512.10;2380.80;;;;;;5035797;28;20029;-79
2021/08/07 06:20:41;;;;;;;8.38;3.40;;;512.40;2380.80;;;;;;5017378;28;20025;-78
2021/08/07 06:23:07;;;;;;;9.30;3.83;;;512.30;2380.80;;;;;;5017698;28;20482;-77
2021/08/07 06:25:32;;;;;;;10.23;3.30;;;512.40;2380.80;;;;;;5017719;28;20038;-78
2021/08/07 06:27:58;;;;;;;5.25;3.17;;;512.70;2380.80;;;;;;5035387;28;20075;-75
2021/08/07 06:30:26;;;;;;;7.65;3.20;;;512.60;2380.80;;;;;;5017565;28;20033;-77
2021/08/07 06:32:52;;;;;;;6.40;3.08;;;512.90;2380.80;;;;;;5016883;28;20447;-77
2021/08/07 06:35:18;;;;;;;6.32;2.95;;;512.60;2380.80;;;;;;5016506;28;20397;-77
2021/08/07 06:37:45;;;;;;;5.78;3.15;;;537.60;2406.40;;;;;;5017391;28;20049;-76
2021/08/07 06:40:12;;;;;;;5.35;3.00;;;537.80;2406.40;;;;;;5017345;28;20091;-76
2021/08/07 06:42:38;;;;;;;5.70;2.70;;;537.80;2406.40;;;;;;5034659;28;20021;-77
2021/08/07 06:45:04;;;;;;;4.25;2.88;;;538.00;2406.40;;;;;;5016635;28;20032;-78
2021/08/07 06:47:31;;;;;;;5.70;3.30;;;538.10;2406.40;;;;;;5015891;28;20025;-77
2021/08/07 06:49:57;;;;;;;5.72;3.30;;;538.30;2406.40;;;;;;5017401;28;20036;-75
2021/08/07 06:52:24;;;;;;;7.70;3.05;;;538.50;2406.40;;;;;;5017248;28;20048;-76
2021/08/07 06:54:50;;;;;;;7.50;3.28;;;563.20;2432.00;;;;;;5016952;28;20506;-75
2021/08/07 06:57:20;;;;;;;7.03;3.42;;;563.30;2432.00;;;;;;5016826;28;20158;-75
2021/08/07 06:59:46;;;;;;;8.88;3.88;;;563.60;2432.00;;;;;;5016963;28;20025;-76
2021/08/07 07:02:12;;;;;;;5.85;3.40;;;563.70;2432.00;;;;;;5016708;28;20032;-76
2021/08/07 07:04:38;;;;;;;8.27;3.80;;;564.00;2432.00;;;;;;5016830;28;20021;-75
2021/08/07 07:07:04;;;;;;;8.43;3.28;;;588.80;2432.00;;;;;;5034542;28;20080;-77
2021/08/07 07:09:31;;;;;;;8.10;3.28;;;588.90;2432.00;;;;;;5016578;28;20026;-76
2021/08/07 07:11:57;;;;;;;11.32;3.25;;;589.00;2432.00;;;;;;5016851;28;20136;-77
2021/08/07 07:14:23;;;;;;;6.60;3.40;;;589.10;2432.00;;;;;;5033517;28;20021;-78
2021/08/07 07:16:49;;;;;;;8.55;4.60;;;589.20;2432.00;;;;;;5016109;28;20031;-77
2021/08/07 07:19:15;;;;;;;5.72;3.13;;;589.30;2432.00;;;;;;5016746;28;20477;-76
2021/08/07 07:21:41;;;;;;;4.93;2.67;;;589.10;2432.00;;;;;;5016642;28;20075;-78
2021/08/07 07:24:07;;;;;;;4.80;3.03;;;589.30;2432.00;;;;;;5013944;28;20029;-78
2021/08/07 07:26:34;;;;;;;7.68;2.83;;;589.30;2432.00;;;;;;5016230;28;20036;-75
2021/08/07 07:29:01;;;;;;;6.20;3.40;;;589.30;2432.00;;;;;;5016512;28;20359;-78
2021/08/07 07:31:26;;;;;;;7.72;4.20;;;589.50;2432.00;;;;;;5016135;28;20069;-76
2021/08/07 07:33:53;;;;;;;6.25;3.10;;;589.70;2432.00;;;;;;5018211;28;20095;-77
2021/08/07 07:36:19;;;;;;;7.70;2.70;;;614.40;2432.00;;;;;;5019006;28;20048;-76
2021/08/07 07:38:45;;;;;;;4.28;2.83;;;614.70;2432.00;;;;;;5018690;28;20497;-75
2021/08/07 07:41:12;;;;;;;8.60;4.35;;;589.50;2432.00;;;;;;5034567;28;20431;-76
2021/08/07 07:43:38;;;;;;;9.68;4.07;;;614.80;2432.00;;;;;;5016175;28;20031;-75
2021/08/07 07:46:05;;;;;;;4.95;2.80;;;615.00;2432.00;;;;;;5018652;28;20381;-77
2021/08/07 07:48:31;;;;;;;5.88;3.25;;;615.00;2432.00;;;;;;5015819;28;20506;-75
2021/08/07 07:50:57;;;;;;;5.60;3.17;;;615.00;2432.00;;;;;;5015446;28;20121;-75
2021/08/07 07:53:22;;;;;;;4.30;2.70;;;615.10;2432.00;;;;;;5033812;28;20022;-76
2021/08/07 07:55:48;;;;;;;6.35;2.67;;;615.30;2432.00;;;;;;5015613;28;20068;-75
2021/08/07 07:58:14;;;;;;;10.25;2.80;;;640.20;2432.00;;;;;;5015073;28;20446;-75
2021/08/07 08:00:40;;;;;;;5.43;3.60;;;640.50;2432.00;;;;;;5015783;28;20017;-76
2021/08/07 08:03:06;;;;;;;6.72;2.85;;;640.30;2406.40;;;;;;5015771;28;20025;-77
2021/08/07 08:05:32;;;;;;;6.35;2.80;;;640.30;2406.40;;;;;;5033030;28;20029;-77
2021/08/07 08:07:57;;;;;;;8.18;3.25;;;640.70;2380.80;;;;;;5033451;28;20025;-76
2021/08/07 08:10:23;;;;;;;6.38;3.33;;;665.60;2355.20;;;;;;5015908;28;20363;-75
2021/08/07 08:12:49;;;;;;;8.20;2.40;;;665.80;2329.60;;;;;;5015689;28;20447;-77
2021/08/07 08:15:16;;;;;;;4.28;2.33;;;665.80;2278.40;;;;;;5015841;28;20032;-76
2021/08/07 08:17:42;;;;;;;6.53;2.90;;;665.70;2278.40;;;;;;5015468;28;20053;-75
2021/08/07 08:20:09;;;;;;;8.32;3.60;;;665.70;2278.40;;;;;;5032972;28;20018;-73
2021/08/07 08:22:35;;;;;;;7.95;4.70;;;666.00;2278.40;;;;;;5015644;28;20021;-77
2021/08/07 08:25:01;;;;;;;5.70;3.22;;;666.40;2304.00;;;;;;5015393;28;20037;-75
2021/08/07 08:27:27;;;;;;;13.25;7.05;;;691.20;2252.80;;;;;;5036100;28;20033;-77
2021/08/07 08:29:56;;;;;;;5.60;3.30;;;691.40;2227.20;;;;;;5019907;28;20108;-77
2021/08/07 08:32:22;;;;;;;4.75;2.88;;;691.70;2201.60;;;;;;5019461;28;20064;-75
2021/08/07 08:34:48;;;;;;;5.38;3.92;;;691.60;2176.00;;;;;;5019452;28;20048;-77
2021/08/07 08:37:14;;;;;;;5.15;2.58;;;691.80;2124.80;;;;;;5019756;28;20519;-77
2021/08/07 08:39:40;;;;;;;6.68;2.67;;;691.80;2124.80;;;;;;5019248;28;20017;-76
2021/08/07 08:42:07;;;;;;;8.40;3.00;;;691.90;2099.20;;;;;;5019832;28;20413;-76
2021/08/07 08:44:37;;;;;;;4.57;2.85;;;692.10;2124.80;;;;;;5019613;28;20017;-76
2021/08/07 08:47:05;;;;;;;6.43;3.10;;;716.80;2099.20;;;;;;5019488;28;20099;-78
2021/08/07 08:49:33;;;;;;;5.03;2.00;;;717.20;2073.60;;;;;;5019750;28;20029;-79
2021/08/07 08:52:02;;;;;;;3.30;1.75;;;717.00;2022.40;;;;;;5019895;28;20108;-77
2021/08/07 08:54:29;;;;;;;5.35;2.60;;;716.90;1996.80;;;;;;5019184;28;20017;-80
2021/08/07 08:56:55;;;;;;;3.63;1.73;;;717.20;2022.40;;;;;;5019341;28;20404;-77
2021/08/07 08:59:22;;;;;;;6.00;2.35;;;716.80;1971.20;;;;;;5019320;28;20116;-79
2021/08/07 09:01:48;;;;;;;5.00;2.47;;;717.10;1971.20;;;;;;5019022;28;20032;-76
2021/08/07 09:04:15;;;;;;;3.08;1.80;;;717.30;1971.20;;;;;;5036999;28;20021;-80
2021/08/07 09:06:41;;;;;;;4.28;1.90;;;717.60;1894.40;;;;;;5019173;28;20037;-79
2021/08/07 09:09:09;;;;;;;7.60;2.88;;;717.70;1868.80;;;;;;5018689;28;20045;-78
2021/08/07 09:11:46;;;;;;;6.97;3.45;;;742.50;1920.00;;;;;;5018988;28;20017;-78
2021/08/07 09:14:16;;;;;;;9.77;5.30;;;742.60;1920.00;;;;;;5019069;28;20107;-78
2021/08/07 09:17:00;;;;;;;4.13;2.60;;;742.80;1920.00;;;;;;5036423;28;20061;-79
2021/08/07 09:19:38;;;;;;;15.43;10.35;;;742.90;1868.80;;;;;;5019109;28;20116;-78
2021/08/07 09:22:13;;;;;;;9.13;4.20;;;743.10;1894.40;;;;;;5018315;28;20029;-77
2021/08/07 09:25:00;;;;;;;8.23;5.32;;;743.10;1868.80;;;;;;5019008;28;20024;-77
2021/08/07 09:27:47;;;;;;;4.57;2.75;;;743.30;1868.80;;;;;;5036009;28;20033;-78
2021/08/07 09:30:16;;;;;;;5.85;2.38;;;768.20;1843.20;;;;;;5018211;28;20483;-80
2021/08/07 09:32:57;;;;;;;5.47;2.78;;;768.10;1817.60;;;;;;5018176;28;20100;-80
2021/08/07 09:35:52;;;;;;;6.77;2.80;;;768.40;1817.60;;;;;;5017996;28;20025;-80
2021/08/07 09:38:30;;;;;;;3.85;2.20;;;768.40;1792.00;;;;;;4996064;28;20040;-81
2021/08/07 09:41:07;;;;;;;5.65;2.40;;;768.30;1766.40;;;;;;5010372;28;20414;-81
2021/08/07 09:43:40;;;;;;;7.05;3.55;;;768.40;1792.00;;;;;;5017606;28;20022;-82
2021/08/07 09:47:03;;;;;;;5.35;3.67;;;768.80;1792.00;;;;;;5018387;28;20025;-80
2021/08/07 09:53:17;;;;;;;5.40;3.10;;;794.00;1792.00;;;;;;5036249;28;20105;-81
2021/08/07 09:56:02;;;;;;;5.85;2.03;;;794.20;1740.80;;;;;;5018173;28;20025;-80
2021/08/07 09:58:28;;;;;;;7.18;3.20;;;793.80;1689.60;;;;;;5017287;28;20048;-79
2021/08/07 10:00:53;;;;;;;20.15;5.22;;;794.00;1715.20;;;;;;5017891;28;20088;-81
2021/08/07 10:03:23;;;;;;;7.03;3.75;;;794.00;1868.80;;;;;;5017407;28;20462;-80
2021/08/07 10:05:50;;;;;;;5.22;3.63;;;794.20;1740.80;;;;;;5017706;28;20021;-78
2021/08/07 10:08:16;;;;;;;9.00;3.47;;;794.50;1715.20;;;;;;5017277;28;20459;-80
2021/08/07 10:10:44;;;;;;;5.07;2.88;;;819.30;1664.00;;;;;;5016248;28;20013;-79
2021/08/07 10:13:11;;;;;;;3.40;2.13;;;794.20;1664.00;;;;;;5017923;28;20029;-80
2021/08/07 10:15:39;;;;;;;4.80;2.40;;;794.00;1689.60;;;;;;5018161;28;20446;-79
2021/08/07 10:18:06;;;;;;;7.03;2.10;;;793.90;1664.00;;;;;;5017966;28;20021;-78
2021/08/07 10:20:36;;;;;;;3.72;1.92;;;793.90;1664.00;;;;;;5035701;28;20056;-80
2021/08/07 10:23:03;;;;;;;4.20;1.90;;;794.00;1612.80;;;;;;5018078;28;20022;-79
2021/08/07 10:25:30;;;;;;;5.97;1.77;;;794.00;1612.80;;;;;;5015460;28;20037;-80
2021/08/07 10:27:58;;;;;;;8.85;4.25;;;793.70;1612.80;;;;;;5017208;28;20479;-77
2021/08/07 10:30:25;;;;;;;4.47;2.88;;;794.50;1612.80;;;;;;5017325;28;20434;-79
2021/08/07 10:32:56;;;;;;;7.43;2.40;;;819.30;1612.80;;;;;;5017106;28;20017;-80
2021/08/07 10:35:26;;;;;;;3.87;2.40;;;819.80;1536.00;;;;;;5017287;28;20021;-78
2021/08/07 10:37:57;;;;;;;4.10;1.92;;;820.00;1536.00;;;;;;5018243;28;20025;-77
2021/08/07 10:40:24;;;;;;;6.00;1.90;;;819.60;1510.40;;;;;;5017240;28;20028;-80
2021/08/07 10:42:51;;;;;;;3.00;1.48;;;819.30;1510.40;;;;;;5017021;28;20017;-79
2021/08/07 10:45:17;;;;;;;4.22;1.75;;;819.30;1484.80;;;;;;5016404;28;20029;-77
2021/08/07 10:47:47;;;;;;;6.70;2.05;;;819.30;1510.40;;;;;;5017067;28;20443;-80
2021/08/07 10:50:24;;;;;;;5.72;2.05;;;819.50;1510.40;;;;;;5034431;28;20026;-80
2021/08/07 10:52:51;;;;;;;6.22;2.00;;;819.30;1484.80;;;;;;5016922;28;20119;-80
2021/08/07 10:55:43;;;;;;;5.55;2.30;;;819.60;1484.80;;;;;;5017032;28;20037;-79
2021/08/07 10:58:31;;;;;;;3.60;1.80;;;820.10;1484.80;;;;;;5016842;28;20095;-82
2021/08/07 11:01:22;;;;;;;6.80;2.10;;;819.80;1484.80;;;;;;5016792;28;20048;-81
2021/08/07 11:04:02;;;;;;;5.03;1.98;;;820.00;1459.20;;;;;;5017007;28;20482;-79
2021/08/07 11:06:38;;;;;;;4.10;2.42;;;844.90;1510.40;;;;;;5016670;28;20029;-79
2021/08/07 11:09:27;;;;;;;4.03;1.83;;;845.50;1510.40;;;;;;5034904;28;20048;-80
2021/08/07 11:12:05;;;;;;;4.03;1.80;;;845.10;1459.20;;;;;;5016860;28;20025;-78
2021/08/07 11:14:34;;;;;;;4.00;1.75;;;845.00;1459.20;;;;;;5016530;28;20478;-77
2021/08/07 11:17:05;;;;;;;3.80;2.05;;;844.80;1510.40;;;;;;5034496;28;20017;-77
2021/08/07 11:20:00;;;;;;;3.00;1.58;;;845.40;1459.20;;;;;;5016673;28;20024;-78
2021/08/07 11:22:36;;;;;;;3.90;2.15;;;845.10;1459.20;;;;;;5016408;28;20104;-78
2021/08/07 11:25:03;;;;;;;4.43;1.90;;;845.60;1459.20;;;;;;5016643;28;20028;-79
2021/08/07 11:30:41;;;;;;;4.97;1.40;;;845.50;1433.60;;;;;;5034287;28;20491;-78
2021/08/07 11:33:10;;;;;;;5.97;2.22;;;845.20;1433.60;;;;;;5016637;28;20017;-79
2021/08/07 11:35:44;;;;;;;4.53;1.60;;;870.60;1433.60;;;;;;5016249;28;20150;-79
2021/08/07 11:38:22;;;;;;;3.58;2.00;;;870.60;1382.40;;;;;;5016453;28;20056;-79
2021/08/07 11:41:02;;;;;;;4.25;2.10;;;870.60;1408.00;;;;;;5033961;28;20105;-78
2021/08/07 11:43:40;;;;;;;4.47;2.28;;;845.30;1408.00;;;;;;5016007;28;20021;-79
2021/08/07 11:46:14;;;;;;;5.28;2.50;;;845.40;1433.60;;;;;;5016265;28;20026;-79
2021/08/07 11:48:45;;;;;;;6.07;2.85;;;870.80;1433.60;;;;;;5016109;28;20029;-77
2021/08/07 11:51:29;;;;;;;12.52;2.10;;;871.30;1382.40;;;;;;5016257;28;20418;-78
2021/08/07 11:53:55;;;;;;;4.05;1.55;;;871.10;1331.20;;;;;;5016298;28;20025;-79
2021/08/07 11:56:23;;;;;;;6.70;4.07;;;871.00;1356.80;;;;;;5015954;28;20029;-80
2021/08/07 11:58:51;;;;;;;6.15;3.42;;;871.10;1356.80;;;;;;5016180;28;20045;-80
2021/08/07 12:01:18;;;;;;;4.85;2.67;;;896.50;1331.20;;;;;;5015250;28;20120;-81
2021/08/07 12:03:45;;;;;;;5.13;3.22;;;896.90;1305.60;;;;;;5016029;28;20025;-78
2021/08/07 12:06:15;;;;;;;4.18;2.10;;;921.80;1331.20;;;;;;5015624;28;20375;-79
2021/08/07 12:08:42;;;;;;;3.72;1.67;;;922.00;1305.60;;;;;;5016189;28;20157;-80
2021/08/07 12:11:19;;;;;;;4.63;2.08;;;896.80;1280.00;;;;;;5015977;28;20022;-80
2021/08/07 12:13:50;;;;;;;5.07;1.88;;;922.40;1331.20;;;;;;5016038;28;20022;-79
2021/08/07 12:16:19;;;;;;;3.08;1.90;;;947.20;1280.00;;;;;;5033656;28;20096;-78
2021/08/07 12:18:46;;;;;;;3.63;1.42;;;922.50;1280.00;;;;;;5015667;28;20048;-81
2021/08/07 12:21:29;;;;;;;4.70;1.80;;;922.20;1254.40;;;;;;5017727;28;20460;-80
2021/08/07 12:24:21;;;;;;;2.75;1.40;;;921.70;1254.40;;;;;;5015820;28;20025;-78
2021/08/07 12:26:55;;;;;;;4.65;1.90;;;896.20;1254.40;;;;;;5006835;28;20364;-80
2021/08/07 12:29:28;;;;;;;4.03;1.40;;;896.40;1254.40;;;;;;5015868;28;20048;-80
2021/08/07 12:31:56;;;;;;;4.53;1.50;;;896.90;1228.80;;;;;;5015738;28;20028;-80
2021/08/07 12:34:26;;;;;;;4.47;2.00;;;896.90;1228.80;;;;;;5016293;28;20032;-80
2021/08/07 12:37:04;;;;;;;3.55;1.88;;;896.90;1228.80;;;;;;5015961;28;20037;-81
2021/08/07 12:39:40;;;;;;;3.88;1.83;;;871.30;1254.40;;;;;;5015695;28;20021;-82